CheckWX is a tool to help pilots better visualize weather data.  It is not intended as a substitute for an official pre-flight weather briefing.

09:49:01 UTC

4M9 METAR
Corning Municipal Airport
Corning, Arkansas, USA
Current

14 mins ago

K4M9 250935Z AUTO 02005KT 10SM SCT048 BKN060 21/21 A2997 RMK AO2 PWINO
Observed
Aug-25 @ 09:35 UTC
Wind
  • 020° at 5 KTS
Visibility
10 SM
Flight Rules
VFR
Cloud Levels
  • Scattered at 4,800' AGL
  • Broken at 6,000' AGL
Temperature
21°C / 70°F
Dewpoint
21°C / 70°F
Humidity
100%
Altimeter
29.97" Hg
Pressure
1014.92 hPa
Previous

34 mins ago

K4M9 250915Z AUTO 03006KT 10SM BKN045 21/21 A2997 RMK AO2 PWINO
Observed
Aug-25 @ 09:15 UTC
Wind
  • 030° at 6 KTS
Visibility
10 SM
Flight Rules
VFR
Cloud Levels
  • Broken at 4,500' AGL
Temperature
21°C / 70°F
Dewpoint
21°C / 70°F
Humidity
100%
Altimeter
29.97" Hg
Pressure
1014.92 hPa
Previous

54 mins ago

K4M9 250855Z AUTO 03007KT 10SM FEW025 SCT036 OVC045 21/21 A2997 RMK AO2 PWINO
Observed
Aug-25 @ 08:55 UTC
Wind
  • 030° at 7 KTS
Visibility
10 SM
Flight Rules
VFR
Cloud Levels
  • Few at 2,500' AGL
  • Scattered at 3,600' AGL
  • Overcast at 4,500' AGL
Temperature
21°C / 70°F
Dewpoint
21°C / 70°F
Humidity
100%
Altimeter
29.97" Hg
Pressure
1014.92 hPa